Time;durP1;ratioP1;P1;durP2;ratioP2;P2;SDS_P1;SDS_P2;PMS_P1;PMS_P2;Temp;Humidity;BMP_temperature;BMP_pressure;BME280_temperature;BME280_humidity;BME280_pressure;Samples;Min_cycle;Max_cycle;Signal;HPM_P1;HPM_P2
2023/12/17 00:00:48;;;;;;;;;;;16.10;86.90;;;;;;5052825;28;19909;-71
2023/12/17 00:03:14;;;;;;;;;;;16.20;86.30;;;;;;5053038;28;19916;-71
2023/12/17 00:05:39;;;;;;;;;;;16.10;86.40;;;;;;5052777;28;19960;-71
2023/12/17 00:08:05;;;;;;;;;;;16.10;86.30;;;;;;5052745;28;19909;-71
2023/12/17 00:10:30;;;;;;;;;;;16.10;85.60;;;;;;5052619;28;19909;-71
2023/12/17 00:12:56;;;;;;;;;;;16.10;86.40;;;;;;5052638;28;20023;-71
2023/12/17 00:15:21;;;;;;;;;;;16.10;86.20;;;;;;5052614;28;19913;-71
2023/12/17 00:17:48;;;;;;;;;;;16.10;86.10;;;;;;5052474;28;19988;-71
2023/12/17 00:20:13;;;;;;;;;;;16.10;86.40;;;;;;5052815;28;19940;-71
2023/12/17 00:22:38;;;;;;;;;;;16.10;86.50;;;;;;5052296;28;20445;-71
2023/12/17 00:25:04;;;;;;;;;;;16.10;86.60;;;;;;5052405;28;19909;-71
2023/12/17 00:27:30;;;;;;;;;;;16.10;86.10;;;;;;5034387;28;19909;-71
2023/12/17 00:29:55;;;;;;;;;;;16.10;86.40;;;;;;5052367;28;19935;-71
2023/12/17 00:32:21;;;;;;;;;;;16.00;86.80;;;;;;5034783;28;19913;-71
2023/12/17 00:34:46;;;;;;;;;;;16.40;86.80;;;;;;5052214;28;19927;-71
2023/12/17 00:37:12;;;;;;;;;;;16.10;86.20;;;;;;5052202;28;19912;-71
2023/12/17 00:39:38;;;;;;;;;;;16.10;86.70;;;;;;5052419;28;19956;-71
2023/12/17 00:42:04;;;;;;;;;;;16.10;86.70;;;;;;5052333;28;19917;-71
2023/12/17 00:44:30;;;;;;;;;;;16.20;86.40;;;;;;5052433;28;19995;-71
2023/12/17 00:46:56;;;;;;;;;;;16.20;86.70;;;;;;5051713;28;19916;-71
2023/12/17 00:49:21;;;;;;;;;;;16.10;86.50;;;;;;5052703;28;19948;-71
2023/12/17 00:51:47;;;;;;;;;;;16.10;86.80;;;;;;5052318;28;19948;-71
2023/12/17 00:54:14;;;;;;;;;;;16.20;86.70;;;;;;5052049;28;20004;-71
2023/12/17 00:56:39;;;;;;;;;;;16.10;86.30;;;;;;5051924;28;20016;-71
2023/12/17 00:59:05;;;;;;;;;;;16.10;86.80;;;;;;5052252;28;19988;-71
2023/12/17 01:01:31;;;;;;;;;;;16.20;86.70;;;;;;5051901;28;20399;-71
2023/12/17 01:03:57;;;;;;;;;;;16.10;86.50;;;;;;5052108;28;19913;-71
2023/12/17 01:06:23;;;;;;;;;;;16.10;86.90;;;;;;5051859;28;20302;-71
2023/12/17 01:08:49;;;;;;;;;;;16.10;86.50;;;;;;5052108;28;19999;-71
2023/12/17 01:11:15;;;;;;;;;;;16.10;86.30;;;;;;5051821;28;19937;-71
2023/12/17 01:13:41;;;;;;;;;;;16.20;86.60;;;;;;5052035;28;19919;-69
2023/12/17 01:16:07;;;;;;;;;;;16.20;86.60;;;;;;5052099;28;19909;-71
2023/12/17 01:18:33;;;;;;;;;;;16.20;86.30;;;;;;5052110;28;19912;-71
2023/12/17 01:20:59;;;;;;;;;;;16.10;86.70;;;;;;5051664;28;20260;-71
2023/12/17 01:23:25;;;;;;;;;;;16.10;86.60;;;;;;5052109;28;19987;-71
2023/12/17 01:25:51;;;;;;;;;;;16.20;86.70;;;;;;5051655;28;19978;-70
2023/12/17 01:28:17;;;;;;;;;;;16.20;86.40;;;;;;5051959;28;19909;-70
2023/12/17 01:30:43;;;;;;;;;;;16.20;86.30;;;;;;5051673;28;19909;-70
2023/12/17 01:33:09;;;;;;;;;;;16.10;86.50;;;;;;5051944;28;19931;-71
2023/12/17 01:35:35;;;;;;;;;;;16.20;86.40;;;;;;5052005;28;19916;-71
2023/12/17 01:38:01;;;;;;;;;;;16.10;86.50;;;;;;5052134;28;19913;-70
2023/12/17 01:40:27;;;;;;;;;;;16.20;86.50;;;;;;5051916;28;20288;-70
2023/12/17 01:42:53;;;;;;;;;;;16.20;86.40;;;;;;5051747;28;19975;-71
2023/12/17 01:45:19;;;;;;;;;;;16.20;86.50;;;;;;5051823;28;20004;-70
2023/12/17 01:47:45;;;;;;;;;;;16.10;86.30;;;;;;5051769;28;19915;-70
2023/12/17 01:50:11;;;;;;;;;;;16.20;86.30;;;;;;5051445;28;20283;-70
2023/12/17 01:52:38;;;;;;;;;;;16.10;86.30;;;;;;5051503;28;19915;-70
2023/12/17 01:55:04;;;;;;;;;;;16.10;86.40;;;;;;5051475;28;19909;-70
2023/12/17 01:57:30;;;;;;;;;;;16.10;86.00;;;;;;5051245;28;19921;-70
2023/12/17 01:59:56;;;;;;;;;;;16.30;86.40;;;;;;5055291;28;19920;-71
2023/12/17 02:02:22;;;;;;;;;;;16.30;86.40;;;;;;5055188;28;20011;-70
2023/12/17 02:04:48;;;;;;;;;;;16.10;86.30;;;;;;5054860;28;19974;-70
2023/12/17 02:07:13;;;;;;;;;;;16.10;86.40;;;;;;5054952;28;19908;-70
2023/12/17 02:09:39;;;;;;;;;;;16.10;86.00;;;;;;5054913;28;19916;-70
2023/12/17 02:12:04;;;;;;;;;;;16.10;86.40;;;;;;5054822;28;19909;-70
2023/12/17 02:14:30;;;;;;;;;;;16.10;85.90;;;;;;5054833;28;19909;-70
2023/12/17 02:16:55;;;;;;;;;;;16.10;86.10;;;;;;5054532;28;19932;-70
2023/12/17 02:19:21;;;;;;;;;;;16.10;86.20;;;;;;5054708;28;19916;-70
2023/12/17 02:21:46;;;;;;;;;;;16.10;86.20;;;;;;5054640;28;19928;-70
2023/12/17 02:24:12;;;;;;;;;;;16.20;86.50;;;;;;5054812;28;19944;-71
2023/12/17 02:26:41;;;;;;;;;;;16.10;86.20;;;;;;5054860;28;20355;-70
2023/12/17 02:29:07;;;;;;;;;;;16.10;80.80;;;;;;5054504;28;19916;-70
2023/12/17 02:31:32;;;;;;;;;;;16.20;86.20;;;;;;5054457;28;19909;-70
2023/12/17 02:33:58;;;;;;;;;;;16.10;86.10;;;;;;5054309;28;19909;-70
2023/12/17 02:36:23;;;;;;;;;;;16.10;86.20;;;;;;5054282;28;20287;-70
2023/12/17 02:38:49;;;;;;;;;;;16.10;86.00;;;;;;5054407;28;19909;-70
2023/12/17 02:41:14;;;;;;;;;;;16.20;86.10;;;;;;5054194;28;20321;-70
2023/12/17 02:43:40;;;;;;;;;;;16.10;86.20;;;;;;5054316;28;20299;-70
2023/12/17 02:46:05;;;;;;;;;;;16.20;86.20;;;;;;5054244;28;19915;-71
2023/12/17 02:48:32;;;;;;;;;;;16.20;86.00;;;;;;5054196;28;19913;-71
2023/12/17 02:50:58;;;;;;;;;;;16.10;86.00;;;;;;5054131;28;19909;-70
2023/12/17 02:53:23;;;;;;;;;;;16.10;86.00;;;;;;5054116;28;19932;-70
2023/12/17 02:55:49;;;;;;;;;;;16.00;85.50;;;;;;5054054;28;19932;-70
2023/12/17 02:58:15;;;;;;;;;;;16.00;86.20;;;;;;5052961;28;19928;-70
2023/12/17 03:00:40;;;;;;;;;;;16.10;85.90;;;;;;5052992;28;19909;-70
2023/12/17 03:03:06;;;;;;;;;;;16.40;86.20;;;;;;5034905;28;19923;-70
2023/12/17 03:05:31;;;;;;;;;;;16.10;86.10;;;;;;5053103;28;19913;-70
2023/12/17 03:07:57;;;;;;;;;;;16.10;86.00;;;;;;5052854;28;19909;-70
2023/12/17 03:10:22;;;;;;;;;;;16.40;86.00;;;;;;5052023;28;19913;-70
2023/12/17 03:12:48;;;;;;;;;;;16.10;86.00;;;;;;5052742;28;19909;-70
2023/12/17 03:15:13;;;;;;;;;;;16.10;85.90;;;;;;5052916;28;19963;-70
2023/12/17 03:17:39;;;;;;;;;;;16.10;85.60;;;;;;5052563;28;19916;-71
2023/12/17 03:20:05;;;;;;;;;;;16.10;85.90;;;;;;5052705;28;19915;-70
2023/12/17 03:22:31;;;;;;;;;;;16.20;83.40;;;;;;5052735;28;19916;-70
2023/12/17 03:24:57;;;;;;;;;;;16.00;86.00;;;;;;5052499;28;20049;-70
2023/12/17 03:27:22;;;;;;;;;;;16.00;86.00;;;;;;5052761;28;19912;-70
2023/12/17 03:29:48;;;;;;;;;;;16.00;85.50;;;;;;5052471;28;19908;-71
2023/12/17 03:32:15;;;;;;;;;;;16.10;86.10;;;;;;5052435;28;19908;-70
2023/12/17 03:34:40;;;;;;;;;;;16.10;85.90;;;;;;5052716;28;19908;-70
2023/12/17 03:37:08;;;;;;;;;;;15.80;84.70;;;;;;5051602;28;21315;-70
2023/12/17 03:39:33;;;;;;;;;;;16.00;86.00;;;;;;5052286;28;19909;-70
2023/12/17 03:41:59;;;;;;;;;;;16.00;86.00;;;;;;5052220;28;20367;-70
2023/12/17 03:44:24;;;;;;;;;;;16.00;85.80;;;;;;5052203;28;19978;-70
2023/12/17 03:46:49;;;;;;;;;;;16.10;85.80;;;;;;5052095;28;19991;-70
2023/12/17 03:49:15;;;;;;;;;;;16.00;85.80;;;;;;5052134;28;19912;-70
2023/12/17 03:51:40;;;;;;;;;;;16.00;86.10;;;;;;5052145;28;20033;-70
2023/12/17 03:54:06;;;;;;;;;;;16.00;85.60;;;;;;5052051;28;19940;-70
2023/12/17 03:56:31;;;;;;;;;;;16.00;85.60;;;;;;4989511;28;1778909;-71
2023/12/17 03:58:57;;;;;;;;;;;16.00;85.80;;;;;;5052829;28;19920;-70
2023/12/17 04:01:23;;;;;;;;;;;16.40;86.20;;;;;;5052694;28;20402;-70
2023/12/17 04:03:48;;;;;;;;;;;16.00;86.00;;;;;;5052939;28;19909;-70
2023/12/17 04:06:14;;;;;;;;;;;16.00;86.00;;;;;;5052683;28;19915;-70
2023/12/17 04:08:39;;;;;;;;;;;16.00;86.00;;;;;;5052618;28;19909;-70
2023/12/17 04:11:05;;;;;;;;;;;16.00;85.90;;;;;;5052610;28;20295;-70
2023/12/17 04:13:30;;;;;;;;;;;14.20;84.40;;;;;;5034676;28;19935;-70
2023/12/17 04:15:56;;;;;;;;;;;16.00;86.10;;;;;;5052539;28;19909;-70
2023/12/17 04:18:21;;;;;;;;;;;16.00;85.90;;;;;;5052508;28;19943;-70
2023/12/17 04:20:47;;;;;;;;;;;15.90;85.80;;;;;;5052267;28;19912;-70
2023/12/17 04:23:12;;;;;;;;;;;16.00;85.90;;;;;;5051879;28;20007;-70
2023/12/17 04:25:38;;;;;;;;;;;15.90;85.90;;;;;;5052418;28;20397;-70
2023/12/17 04:28:03;;;;;;;;;;;16.00;86.10;;;;;;5052403;28;20318;-70
2023/12/17 04:30:29;;;;;;;;;;;16.00;85.80;;;;;;5052609;28;20383;-70
2023/12/17 04:32:55;;;;;;;;;;;15.80;85.70;;;;;;5052314;28;19909;-70
2023/12/17 04:35:20;;;;;;;;;;;15.90;86.10;;;;;;5052297;28;19909;-70
2023/12/17 04:37:46;;;;;;;;;;;16.00;86.20;;;;;;5052254;28;19909;-70
2023/12/17 04:40:11;;;;;;;;;;;15.90;86.20;;;;;;5052276;28;19995;-70
2023/12/17 04:42:37;;;;;;;;;;;15.90;85.80;;;;;;5051951;28;19932;-70
2023/12/17 04:45:05;;;;;;;;;;;16.10;86.50;;;;;;5052111;28;20102;-70
2023/12/17 04:47:31;;;;;;;;;;;16.00;85.30;;;;;;5052069;28;20416;-70
2023/12/17 04:49:57;;;;;;;;;;;16.00;86.40;;;;;;5052098;28;19996;-70
2023/12/17 04:52:22;;;;;;;;;;;15.80;86.10;;;;;;5052153;28;19908;-70
2023/12/17 04:54:48;;;;;;;;;;;16.00;86.30;;;;;;5052051;28;20010;-70
2023/12/17 04:57:13;;;;;;;;;;;15.90;86.00;;;;;;5051750;28;19921;-70
2023/12/17 04:59:39;;;;;;;;;;;16.00;86.20;;;;;;5052259;28;20023;-70
2023/12/17 05:02:06;;;;;;;;;;;16.10;86.20;;;;;;5051888;28;20007;-70
2023/12/17 05:04:31;;;;;;;;;;;16.00;86.30;;;;;;5052019;28;19952;-70
2023/12/17 05:06:57;;;;;;;;;;;16.00;86.40;;;;;;5051839;28;19971;-70
2023/12/17 05:09:22;;;;;;;;;;;15.90;86.20;;;;;;5051911;28;19909;-70
2023/12/17 05:11:49;;;;;;;;;;;16.00;86.30;;;;;;5051880;28;19909;-70
2023/12/17 05:14:15;;;;;;;;;;;15.30;86.00;;;;;;5052105;28;19924;-70
2023/12/17 05:16:41;;;;;;;;;;;16.00;86.10;;;;;;5051837;28;19920;-70
2023/12/17 05:19:07;;;;;;;;;;;15.90;86.50;;;;;;5051815;28;19909;-70
2023/12/17 05:21:33;;;;;;;;;;;16.00;86.20;;;;;;5051946;28;20288;-70
2023/12/17 05:23:59;;;;;;;;;;;15.90;86.10;;;;;;5052019;28;19995;-70
2023/12/17 05:26:25;;;;;;;;;;;16.00;85.90;;;;;;5051677;28;19932;-70
2023/12/17 05:28:50;;;;;;;;;;;15.70;86.00;;;;;;5051934;28;20368;-70
2023/12/17 05:31:16;;;;;;;;;;;16.10;86.50;;;;;;5051940;28;19916;-70
2023/12/17 05:33:46;;;;;;;;;;;16.00;86.30;;;;;;5053516;28;19909;-71
2023/12/17 05:36:12;;;;;;;;;;;16.00;85.90;;;;;;5056043;28;20312;-70
2023/12/17 05:38:38;;;;;;;;;;;16.00;86.30;;;;;;5055403;28;19951;-70
2023/12/17 05:41:04;;;;;;;;;;;15.90;86.10;;;;;;5055549;28;19944;-71
2023/12/17 05:43:30;;;;;;;;;;;15.90;85.20;;;;;;5055388;28;20375;-71
2023/12/17 05:45:56;;;;;;;;;;;16.00;85.70;;;;;;5055233;28;19915;-71
2023/12/17 05:48:22;;;;;;;;;;;16.00;86.10;;;;;;5055176;28;19913;-70
2023/12/17 05:50:48;;;;;;;;;;;15.90;86.20;;;;;;5055451;28;19909;-71
2023/12/17 05:53:14;;;;;;;;;;;15.90;86.10;;;;;;5055455;28;20327;-70
2023/12/17 05:55:40;;;;;;;;;;;15.90;85.60;;;;;;5055034;28;19909;-71
2023/12/17 05:58:06;;;;;;;;;;;15.90;86.10;;;;;;5054898;28;19932;-70
2023/12/17 06:00:32;;;;;;;;;;;15.90;85.80;;;;;;5055337;28;20346;-71
2023/12/17 06:02:58;;;;;;;;;;;15.90;85.90;;;;;;5055127;28;20294;-71
2023/12/17 06:05:23;;;;;;;;;;;16.00;86.10;;;;;;5054902;28;19909;-71
2023/12/17 06:07:49;;;;;;;;;;;16.00;86.10;;;;;;5055101;28;19909;-70
2023/12/17 06:10:15;;;;;;;;;;;15.90;85.90;;;;;;5037042;28;20330;-70
2023/12/17 06:12:42;;;;;;;;;;;15.00;85.10;;;;;;5055104;28;19913;-71
2023/12/17 06:15:09;;;;;;;;;;;16.00;85.80;;;;;;5055044;28;20256;-71
2023/12/17 06:17:34;;;;;;;;;;;16.00;85.70;;;;;;5054973;28;20251;-70
2023/12/17 06:20:02;;;;;;;;;;;16.00;86.10;;;;;;5054600;28;19909;-70
2023/12/17 06:22:28;;;;;;;;;;;15.90;85.60;;;;;;5054894;28;19924;-71
2023/12/17 06:24:54;;;;;;;;;;;15.90;85.70;;;;;;5054972;28;19915;-71
2023/12/17 06:27:20;;;;;;;;;;;15.90;86.00;;;;;;5054776;28;19908;-71
2023/12/17 06:29:52;;;;;;;;;;;16.00;85.90;;;;;;5054472;28;19908;-70
2023/12/17 06:32:17;;;;;;;;;;;15.90;81.60;;;;;;5054419;28;19951;-70
2023/12/17 06:34:43;;;;;;;;;;;15.90;86.00;;;;;;5054669;28;19940;-70
2023/12/17 06:37:10;;;;;;;;;;;15.80;85.50;;;;;;5054250;28;19909;-70
2023/12/17 06:39:41;;;;;;;;;;;15.90;85.80;;;;;;5054219;28;20050;-70
2023/12/17 06:42:08;;;;;;;;;;;15.90;86.10;;;;;;5054472;28;19924;-71
2023/12/17 06:44:34;;;;;;;;;;;15.90;85.90;;;;;;5053389;28;19909;-71
2023/12/17 06:47:00;;;;;;;;;;;15.90;85.80;;;;;;5054460;28;19916;-71
2023/12/17 06:49:25;;;;;;;;;;;15.90;85.90;;;;;;5054146;28;19916;-71
2023/12/17 06:51:51;;;;;;;;;;;15.90;86.40;;;;;;5054311;28;20003;-70
2023/12/17 06:54:17;;;;;;;;;;;15.90;85.80;;;;;;5053912;28;19954;-70
2023/12/17 06:56:44;;;;;;;;;;;15.90;85.30;;;;;;5053985;28;19921;-70
2023/12/17 06:59:10;;;;;;;;;;;15.90;85.60;;;;;;5054218;28;19916;-70
2023/12/17 07:01:36;;;;;;;;;;;15.90;85.60;;;;;;5054112;28;19917;-70
2023/12/17 07:04:02;;;;;;;;;;;16.00;85.60;;;;;;5054119;28;19920;-70
2023/12/17 07:06:29;;;;;;;;;;;16.00;85.70;;;;;;5054057;28;19909;-71
2023/12/17 07:08:55;;;;;;;;;;;16.00;85.40;;;;;;5053902;28;19915;-70
2023/12/17 07:11:20;;;;;;;;;;;16.00;85.70;;;;;;5053780;28;19913;-71
2023/12/17 07:13:46;;;;;;;;;;;16.00;85.60;;;;;;5054287;28;19962;-70
2023/12/17 07:16:21;;;;;;;;;;;15.90;85.40;;;;;;5053891;28;20282;-70
2023/12/17 07:18:47;;;;;;;;;;;16.00;80.40;;;;;;5053574;28;19959;-71
2023/12/17 07:21:12;;;;;;;;;;;15.90;85.60;;;;;;5053397;28;19913;-70
2023/12/17 07:23:38;;;;;;;;;;;15.90;85.40;;;;;;5053485;28;20368;-70
2023/12/17 07:26:03;;;;;;;;;;;16.00;85.10;;;;;;5053393;28;20386;-70
2023/12/17 07:28:29;;;;;;;;;;;15.90;84.70;;;;;;5053647;28;19909;-70
2023/12/17 07:30:54;;;;;;;;;;;15.90;85.60;;;;;;5053376;28;20419;-71
2023/12/17 07:33:20;;;;;;;;;;;15.90;85.40;;;;;;5053296;28;19908;-70
2023/12/17 07:35:45;;;;;;;;;;;16.00;85.40;;;;;;5053186;28;19908;-71
2023/12/17 07:38:11;;;;;;;;;;;15.90;85.30;;;;;;5053487;28;19909;-70
2023/12/17 07:40:36;;;;;;;;;;;16.00;85.50;;;;;;5053227;28;20283;-70
2023/12/17 07:43:02;;;;;;;;;;;16.00;85.50;;;;;;5053023;28;19924;-71
2023/12/17 07:45:27;;;;;;;;;;;15.90;85.30;;;;;;5053070;28;20107;-70
2023/12/17 07:47:53;;;;;;;;;;;15.90;85.40;;;;;;5053049;28;19909;-71
2023/12/17 07:50:18;;;;;;;;;;;15.90;85.30;;;;;;5053018;28;20399;-70
2023/12/17 07:52:44;;;;;;;;;;;16.00;85.30;;;;;;5053178;28;20003;-71
2023/12/17 07:55:10;;;;;;;;;;;15.90;85.30;;;;;;5052983;28;20003;-70
2023/12/17 07:57:36;;;;;;;;;;;16.00;84.80;;;;;;5052308;28;19921;-73
2023/12/17 08:00:02;;;;;;;;;;;15.90;85.20;;;;;;5053032;28;19913;-71
2023/12/17 08:02:28;;;;;;;;;;;15.90;84.60;;;;;;5052970;28;19917;-71
2023/12/17 08:04:54;;;;;;;;;;;16.00;85.20;;;;;;5052598;28;20322;-72
2023/12/17 08:07:20;;;;;;;;;;;15.90;85.20;;;;;;5052435;28;19998;-70
2023/12/17 08:09:46;;;;;;;;;;;16.00;85.30;;;;;;5052534;28;19960;-70
2023/12/17 08:12:12;;;;;;;;;;;15.90;85.00;;;;;;5052511;28;19913;-70
2023/12/17 08:14:38;;;;;;;;;;;15.90;85.10;;;;;;5053051;28;19909;-71
2023/12/17 08:17:03;;;;;;;;;;;16.10;85.20;;;;;;5052514;28;19944;-71
2023/12/17 08:19:29;;;;;;;;;;;15.90;85.00;;;;;;5052556;28;19954;-71
2023/12/17 08:21:55;;;;;;;;;;;16.10;85.20;;;;;;5034859;28;19923;-71
2023/12/17 08:24:21;;;;;;;;;;;15.90;85.00;;;;;;5052631;28;20355;-71
2023/12/17 08:26:47;;;;;;;;;;;15.90;84.80;;;;;;5052578;28;19913;-71
2023/12/17 08:29:13;;;;;;;;;;;16.00;85.10;;;;;;5052387;28;19909;-71
2023/12/17 08:31:42;;;;;;;;;;;15.90;85.00;;;;;;5052205;28;19909;-71
2023/12/17 08:34:08;;;;;;;;;;;15.90;85.30;;;;;;5052931;28;20045;-71
2023/12/17 08:36:35;;;;;;;;;;;16.00;85.50;;;;;;5052606;28;20329;-71
2023/12/17 08:39:01;;;;;;;;;;;16.00;85.30;;;;;;5052473;28;20167;-70
2023/12/17 08:41:28;;;;;;;;;;;15.90;85.30;;;;;;5052406;28;20002;-70
2023/12/17 08:43:53;;;;;;;;;;;15.90;85.40;;;;;;5052460;28;20018;-70
2023/12/17 08:46:19;;;;;;;;;;;15.90;85.40;;;;;;5052094;28;20264;-70
2023/12/17 08:48:45;;;;;;;;;;;15.90;85.20;;;;;;5051966;28;19908;-70
2023/12/17 08:51:11;;;;;;;;;;;15.90;85.50;;;;;;5052158;28;19919;-70
2023/12/17 08:53:37;;;;;;;;;;;15.90;85.40;;;;;;5052137;28;20003;-70
2023/12/17 08:56:03;;;;;;;;;;;15.90;84.90;;;;;;5051853;28;19947;-70
2023/12/17 08:58:29;;;;;;;;;;;15.90;84.90;;;;;;5052203;28;19915;-70
2023/12/17 09:00:54;;;;;;;;;;;15.90;85.20;;;;;;5052270;28;20256;-70
2023/12/17 09:03:20;;;;;;;;;;;16.00;85.40;;;;;;5052251;28;19932;-70
2023/12/17 09:05:45;;;;;;;;;;;15.90;85.50;;;;;;5051947;28;20001;-70
2023/12/17 09:08:12;;;;;;;;;;;15.90;85.30;;;;;;5053305;28;19936;-70
2023/12/17 09:10:37;;;;;;;;;;;15.90;85.20;;;;;;5056077;28;19912;-70
2023/12/17 09:13:03;;;;;;;;;;;15.90;85.40;;;;;;5055997;28;19999;-70
2023/12/17 09:15:28;;;;;;;;;;;15.90;85.20;;;;;;5056025;28;19909;-70
2023/12/17 09:17:54;;;;;;;;;;;15.90;85.20;;;;;;5055930;28;19909;-70
2023/12/17 09:20:19;;;;;;;;;;;15.90;85.30;;;;;;5055930;28;19969;-70
2023/12/17 09:22:45;;;;;;;;;;;15.90;85.20;;;;;;5055749;28;19917;-70
2023/12/17 09:25:11;;;;;;;;;;;15.90;85.00;;;;;;5055778;28;19931;-70
2023/12/17 09:27:36;;;;;;;;;;;15.90;85.20;;;;;;5055723;28;19915;-70
2023/12/17 09:30:02;;;;;;;;;;;15.90;85.20;;;;;;5055748;28;19909;-69
2023/12/17 09:32:27;;;;;;;;;;;15.90;84.50;;;;;;5055966;28;19909;-70
2023/12/17 09:34:53;;;;;;;;;;;15.80;85.10;;;;;;5055655;28;19932;-70
2023/12/17 09:37:20;;;;;;;;;;;15.80;84.70;;;;;;5055629;28;20390;-70
2023/12/17 09:39:45;;;;;;;;;;;15.80;84.90;;;;;;5055429;28;19909;-69
2023/12/17 09:42:11;;;;;;;;;;;15.80;84.80;;;;;;5055398;28;20429;-70
2023/12/17 09:44:36;;;;;;;;;;;15.80;84.80;;;;;;5055455;28;20344;-70
2023/12/17 09:47:03;;;;;;;;;;;15.80;85.10;;;;;;5055399;28;19909;-70
2023/12/17 09:49:28;;;;;;;;;;;15.80;84.20;;;;;;5055636;28;19909;-70
2023/12/17 09:51:58;;;;;;;;;;;15.80;84.70;;;;;;5055296;28;20019;-70
2023/12/17 09:54:24;;;;;;;;;;;15.80;85.10;;;;;;5055571;28;20379;-69
2023/12/17 09:56:50;;;;;;;;;;;15.80;84.40;;;;;;5055000;28;20367;-69
2023/12/17 09:59:16;;;;;;;;;;;15.80;84.90;;;;;;5055138;28;19909;-70
2023/12/17 10:01:41;;;;;;;;;;;15.80;84.70;;;;;;5055050;28;20014;-70
2023/12/17 10:04:07;;;;;;;;;;;15.70;84.50;;;;;;5055073;28;19920;-69
2023/12/17 10:06:32;;;;;;;;;;;15.80;84.90;;;;;;5055046;28;20436;-70
2023/12/17 10:08:58;;;;;;;;;;;15.80;84.80;;;;;;5054962;28;19955;-70
2023/12/17 10:11:24;;;;;;;;;;;15.80;84.50;;;;;;5054865;28;19908;-70
2023/12/17 10:13:51;;;;;;;;;;;15.70;84.00;;;;;;5055044;28;19909;-70
2023/12/17 10:16:17;;;;;;;;;;;15.70;84.80;;;;;;5055080;28;19909;-70
2023/12/17 10:18:47;;;;;;;;;;;15.80;84.40;;;;;;5054986;28;20336;-69
2023/12/17 10:21:13;;;;;;;;;;;15.80;84.10;;;;;;5054903;28;20286;-70
2023/12/17 10:23:45;;;;;;;;;;;15.90;84.60;;;;;;5054745;28;19912;-70
2023/12/17 10:26:11;;;;;;;;;;;15.70;79.10;;;;;;5054620;28;19909;-70
2023/12/17 10:28:36;;;;;;;;;;;15.70;84.60;;;;;;5054599;28;19913;-70
2023/12/17 10:31:03;;;;;;;;;;;15.70;84.20;;;;;;5054483;28;20323;-70
2023/12/17 10:33:33;;;;;;;;;;;15.50;83.40;;;;;;5055750;28;19908;-72
2023/12/17 10:35:59;;;;;;;;;;;15.40;84.10;;;;;;5054823;28;19909;-70
2023/12/17 10:38:26;;;;;;;;;;;15.70;82.60;;;;;;5054937;28;19944;-70
2023/12/17 10:40:52;;;;;;;;;;;15.70;84.30;;;;;;5054630;28;19912;-70
2023/12/17 10:43:18;;;;;;;;;;;15.70;84.40;;;;;;5054470;28;19916;-70
2023/12/17 10:45:44;;;;;;;;;;;15.70;84.20;;;;;;5054212;28;19909;-70
2023/12/17 10:48:12;;;;;;;;;;;15.70;84.10;;;;;;5054376;28;19909;-70
2023/12/17 10:50:38;;;;;;;;;;;15.70;84.20;;;;;;5054412;28;19909;-70
2023/12/17 10:53:04;;;;;;;;;;;15.70;84.40;;;;;;5054372;28;19955;-70
2023/12/17 10:55:31;;;;;;;;;;;15.70;83.40;;;;;;5053883;28;19952;-70
2023/12/17 10:58:03;;;;;;;;;;;15.80;84.00;;;;;;5053865;28;19948;-70
2023/12/17 11:00:31;;;;;;;;;;;17.50;79.70;;;;;;5054251;28;19909;-70
2023/12/17 11:03:02;;;;;;;;;;;15.90;83.60;;;;;;5054077;28;19916;-73
2023/12/17 11:05:28;;;;;;;;;;;15.90;78.40;;;;;;5054070;28;19909;-72
2023/12/17 11:07:54;;;;;;;;;;;15.90;83.40;;;;;;5054086;28;20340;-70
2023/12/17 11:10:20;;;;;;;;;;;16.00;83.00;;;;;;5054270;28;19919;-70
2023/12/17 11:12:46;;;;;;;;;;;16.00;83.00;;;;;;5054016;28;19912;-70
2023/12/17 11:15:12;;;;;;;;;;;16.10;83.10;;;;;;5054048;28;20302;-71
2023/12/17 11:17:39;;;;;;;;;;;16.10;83.10;;;;;;5053994;28;19908;-70
2023/12/17 11:20:05;;;;;;;;;;;16.20;83.20;;;;;;5053910;28;19947;-70
2023/12/17 11:22:36;;;;;;;;;;;16.20;81.30;;;;;;5053543;28;19978;-70
2023/12/17 11:25:02;;;;;;;;;;;16.10;77.40;;;;;;5053614;28;20352;-70
2023/12/17 11:27:34;;;;;;;;;;;16.30;81.60;;;;;;5053407;28;19913;-70
2023/12/17 11:30:00;;;;;;;;;;;16.30;77.40;;;;;;5053488;28;19951;-70
2023/12/17 11:32:27;;;;;;;;;;;16.40;82.80;;;;;;5053233;28;19909;-70
2023/12/17 11:34:54;;;;;;;;;;;16.50;82.40;;;;;;5053700;28;19909;-70
2023/12/17 11:37:21;;;;;;;;;;;16.40;82.70;;;;;;5053651;28;20286;-70
2023/12/17 11:39:48;;;;;;;;;;;16.60;82.40;;;;;;5053302;28;19912;-71
2023/12/17 11:42:15;;;;;;;;;;;16.50;82.60;;;;;;5053445;28;20324;-72
2023/12/17 11:44:47;;;;;;;;;;;16.70;82.30;;;;;;5053330;28;20338;-71
2023/12/17 11:47:13;;;;;;;;;;;16.70;76.60;;;;;;5053145;28;19909;-71
2023/12/17 11:49:38;;;;;;;;;;;16.70;82.20;;;;;;5053076;28;19916;-71
2023/12/17 11:52:11;;;;;;;;;;;17.00;82.00;;;;;;5053022;28;19909;-71
2023/12/17 11:54:36;;;;;;;;;;;16.70;76.50;;;;;;5053048;28;19913;-71
2023/12/17 11:57:02;;;;;;;;;;;16.80;81.00;;;;;;5052702;28;19982;-72
2023/12/17 11:59:32;;;;;;;;;;;16.90;80.70;;;;;;5052889;28;19909;-71
2023/12/17 12:01:57;;;;;;;;;;;16.90;77.00;;;;;;5052926;28;19928;-72
2023/12/17 12:04:23;;;;;;;;;;;16.90;81.40;;;;;;5052838;28;19916;-70
2023/12/17 12:06:52;;;;;;;;;;;16.70;81.30;;;;;;5052906;28;19947;-74
2023/12/17 12:09:19;;;;;;;;;;;17.00;81.40;;;;;;5053007;28;19912;-72
2023/12/17 12:11:44;;;;;;;;;;;17.10;81.10;;;;;;5052600;28;19909;-72
2023/12/17 12:14:10;;;;;;;;;;;17.10;81.40;;;;;;5052715;28;19916;-71
2023/12/17 12:16:39;;;;;;;;;;;17.10;80.90;;;;;;5052679;28;20011;-71
2023/12/17 12:19:05;;;;;;;;;;;17.20;75.80;;;;;;5052696;28;19915;-71
2023/12/17 12:21:30;;;;;;;;;;;17.20;80.90;;;;;;5052563;28;19952;-72
2023/12/17 12:23:56;;;;;;;;;;;17.30;81.10;;;;;;5052995;28;20411;-71
2023/12/17 12:26:22;;;;;;;;;;;17.30;81.00;;;;;;5034820;28;20361;-76
2023/12/17 12:28:58;;;;;;;;;;;17.40;81.10;;;;;;5052631;28;19916;-71
2023/12/17 12:31:24;;;;;;;;;;;17.40;75.40;;;;;;5034670;28;19909;-73
2023/12/17 12:34:00;;;;;;;;;;;17.20;80.80;;;;;;5052622;28;19915;-71
2023/12/17 12:36:26;;;;;;;;;;;17.40;75.30;;;;;;5052492;28;19909;-71
2023/12/17 12:39:02;;;;;;;;;;;17.40;81.30;;;;;;5052443;28;20298;-70
2023/12/17 12:41:29;;;;;;;;;;;17.50;75.30;;;;;;5051299;28;19999;-74
2023/12/17 12:43:55;;;;;;;;;;;17.50;80.60;;;;;;5051148;28;20359;-72
2023/12/17 12:46:22;;;;;;;;;;;17.50;80.80;;;;;;5051840;28;19920;-72
2023/12/17 12:48:57;;;;;;;;;;;17.50;80.40;;;;;;5052387;28;19916;-73
2023/12/17 12:51:23;;;;;;;;;;;17.60;80.20;;;;;;5052262;28;19912;-73
2023/12/17 12:53:49;;;;;;;;;;;17.60;80.80;;;;;;5052367;28;19915;-72
2023/12/17 12:56:16;;;;;;;;;;;17.60;80.10;;;;;;5051931;28;20393;-72
2023/12/17 12:58:43;;;;;;;;;;;17.80;80.70;;;;;;5052127;28;19956;-72
2023/12/17 13:01:09;;;;;;;;;;;17.70;80.40;;;;;;5052452;28;19909;-71
2023/12/17 13:03:35;;;;;;;;;;;17.70;80.30;;;;;;5052327;28;19916;-72
2023/12/17 13:06:01;;;;;;;;;;;17.70;80.50;;;;;;5052356;28;19913;-71
2023/12/17 13:08:27;;;;;;;;;;;17.70;80.40;;;;;;5051999;28;19999;-70
2023/12/17 13:10:53;;;;;;;;;;;17.70;80.50;;;;;;5051754;28;19909;-71
2023/12/17 13:13:19;;;;;;;;;;;17.70;80.30;;;;;;5052245;28;19916;-71
2023/12/17 13:15:45;;;;;;;;;;;17.70;79.90;;;;;;5052137;28;19968;-71
2023/12/17 13:18:11;;;;;;;;;;;17.70;80.10;;;;;;5051967;28;20099;-71
2023/12/17 13:20:37;;;;;;;;;;;17.70;80.10;;;;;;5052161;28;19915;-71
2023/12/17 13:23:03;;;;;;;;;;;17.80;80.40;;;;;;5052107;28;19963;-71
2023/12/17 13:25:29;;;;;;;;;;;17.70;80.20;;;;;;5052135;28;19908;-71
2023/12/17 13:27:56;;;;;;;;;;;17.80;80.50;;;;;;5051719;28;19939;-71
2023/12/17 13:30:25;;;;;;;;;;;17.80;80.30;;;;;;5051772;28;19913;-71
2023/12/17 13:32:54;;;;;;;;;;;17.80;80.30;;;;;;5052014;28;19909;-71
2023/12/17 13:35:20;;;;;;;;;;;17.80;74.90;;;;;;5051678;28;19909;-71
2023/12/17 13:37:46;;;;;;;;;;;17.80;80.40;;;;;;5052010;28;19916;-71
2023/12/17 13:40:16;;;;;;;;;;;17.80;80.10;;;;;;5051931;28;19916;-71
2023/12/17 13:42:42;;;;;;;;;;;17.80;79.20;;;;;;5051853;28;20012;-71
2023/12/17 13:45:08;;;;;;;;;;;17.70;80.50;;;;;;5051878;28;19928;-71
2023/12/17 13:47:34;;;;;;;;;;;17.80;79.10;;;;;;5051886;28;19908;-71
2023/12/17 13:50:00;;;;;;;;;;;17.70;80.60;;;;;;5051531;28;19999;-71
2023/12/17 13:52:26;;;;;;;;;;;17.80;80.10;;;;;;5051790;28;19984;-71
2023/12/17 13:54:52;;;;;;;;;;;17.80;80.20;;;;;;5053717;28;20260;-71
2023/12/17 13:57:20;;;;;;;;;;;17.70;79.60;;;;;;5055014;28;19921;-71
2023/12/17 13:59:48;;;;;;;;;;;17.70;80.20;;;;;;5055204;28;19909;-71
2023/12/17 14:02:16;;;;;;;;;;;17.80;76.00;;;;;;5055018;28;19917;-71
2023/12/17 14:04:42;;;;;;;;;;;17.80;80.40;;;;;;5055207;28;20003;-71
2023/12/17 14:07:08;;;;;;;;;;;17.70;80.30;;;;;;5054982;28;20002;-71
2023/12/17 14:09:33;;;;;;;;;;;17.70;80.00;;;;;;5054984;28;19962;-71